sensor_id;sensor_type;location;lat;lon;timestamp;temperature;humidity
11095;DHT22;5601;44.490;11.400;2022-12-29T00:00:03;9.10;99.90
11095;DHT22;5601;44.490;11.400;2022-12-29T00:02:32;9.10;99.90
11095;DHT22;5601;44.490;11.400;2022-12-29T00:04:59;9.10;99.90
11095;DHT22;5601;44.490;11.400;2022-12-29T00:07:26;9.10;99.90
11095;DHT22;5601;44.490;11.400;2022-12-29T00:09:54;9.10;99.90
11095;DHT22;5601;44.490;11.400;2022-12-29T00:12:21;9.10;99.90
11095;DHT22;5601;44.490;11.400;2022-12-29T00:14:48;9.10;99.90
11095;DHT22;5601;44.490;11.400;2022-12-29T00:17:34;9.10;99.90
11095;DHT22;5601;44.490;11.400;2022-12-29T00:20:01;9.10;99.90
11095;DHT22;5601;44.490;11.400;2022-12-29T00:22:46;9.10;99.90
11095;DHT22;5601;44.490;11.400;2022-12-29T00:25:30;9.10;99.90
11095;DHT22;5601;44.490;11.400;2022-12-29T00:28:14;9.00;99.90
11095;DHT22;5601;44.490;11.400;2022-12-29T00:30:59;9.00;99.90
11095;DHT22;5601;44.490;11.400;2022-12-29T00:33:46;9.10;99.90
11095;DHT22;5601;44.490;11.400;2022-12-29T00:36:30;9.10;99.90
11095;DHT22;5601;44.490;11.400;2022-12-29T00:38:59;9.10;99.90
11095;DHT22;5601;44.490;11.400;2022-12-29T00:41:44;9.10;99.90
11095;DHT22;5601;44.490;11.400;2022-12-29T00:44:28;9.10;99.90
11095;DHT22;5601;44.490;11.400;2022-12-29T00:46:55;9.00;99.90
11095;DHT22;5601;44.490;11.400;2022-12-29T00:49:24;9.00;99.90
11095;DHT22;5601;44.490;11.400;2022-12-29T00:51:56;9.00;99.90
11095;DHT22;5601;44.490;11.400;2022-12-29T00:54:24;9.00;99.90
11095;DHT22;5601;44.490;11.400;2022-12-29T00:56:51;9.00;99.90
11095;DHT22;5601;44.490;11.400;2022-12-29T00:59:18;9.00;99.90
11095;DHT22;5601;44.490;11.400;2022-12-29T01:01:46;9.10;99.90
11095;DHT22;5601;44.490;11.400;2022-12-29T01:04:13;9.10;99.90
11095;DHT22;5601;44.490;11.400;2022-12-29T01:06:42;9.10;99.90
11095;DHT22;5601;44.490;11.400;2022-12-29T01:09:09;9.10;99.90
11095;DHT22;5601;44.490;11.400;2022-12-29T01:11:54;9.10;99.90
11095;DHT22;5601;44.490;11.400;2022-12-29T01:14:22;9.10;99.90
11095;DHT22;5601;44.490;11.400;2022-12-29T01:16:49;9.00;99.90
11095;DHT22;5601;44.490;11.400;2022-12-29T01:19:17;9.00;99.90
11095;DHT22;5601;44.490;11.400;2022-12-29T01:21:47;9.00;99.90
11095;DHT22;5601;44.490;11.400;2022-12-29T01:24:15;9.00;99.90
11095;DHT22;5601;44.490;11.400;2022-12-29T01:26:42;9.00;99.90
11095;DHT22;5601;44.490;11.400;2022-12-29T01:29:10;9.00;99.90
11095;DHT22;5601;44.490;11.400;2022-12-29T01:31:37;9.00;99.90
11095;DHT22;5601;44.490;11.400;2022-12-29T01:34:05;9.10;99.90
11095;DHT22;5601;44.490;11.400;2022-12-29T01:36:32;9.10;99.90
11095;DHT22;5601;44.490;11.400;2022-12-29T01:39:01;9.10;99.90
11095;DHT22;5601;44.490;11.400;2022-12-29T01:41:28;9.10;99.90
11095;DHT22;5601;44.490;11.400;2022-12-29T01:43:57;9.10;99.90
11095;DHT22;5601;44.490;11.400;2022-12-29T01:46:26;9.10;99.90
11095;DHT22;5601;44.490;11.400;2022-12-29T01:48:55;9.10;99.90
11095;DHT22;5601;44.490;11.400;2022-12-29T01:51:24;9.10;99.90
11095;DHT22;5601;44.490;11.400;2022-12-29T01:53:53;9.10;99.90
11095;DHT22;5601;44.490;11.400;2022-12-29T01:56:26;9.10;99.90
11095;DHT22;5601;44.490;11.400;2022-12-29T01:58:54;9.10;99.90
11095;DHT22;5601;44.490;11.400;2022-12-29T02:01:23;9.10;99.90
11095;DHT22;5601;44.490;11.400;2022-12-29T02:03:50;9.10;99.90
11095;DHT22;5601;44.490;11.400;2022-12-29T02:06:19;9.10;99.90
11095;DHT22;5601;44.490;11.400;2022-12-29T02:08:47;9.10;99.90
11095;DHT22;5601;44.490;11.400;2022-12-29T02:11:16;9.20;99.90
11095;DHT22;5601;44.490;11.400;2022-12-29T02:13:44;9.20;99.90
11095;DHT22;5601;44.490;11.400;2022-12-29T02:16:16;9.20;99.90
11095;DHT22;5601;44.490;11.400;2022-12-29T02:18:47;9.10;99.90
11095;DHT22;5601;44.490;11.400;2022-12-29T02:27:09;9.10;99.90
11095;DHT22;5601;44.490;11.400;2022-12-29T02:29:50;9.10;99.90
11095;DHT22;5601;44.490;11.400;2022-12-29T02:32:25;9.10;99.90
11095;DHT22;5601;44.490;11.400;2022-12-29T02:35:01;9.10;99.90
11095;DHT22;5601;44.490;11.400;2022-12-29T02:37:30;9.10;99.90
11095;DHT22;5601;44.490;11.400;2022-12-29T02:40:01;9.20;99.90
11095;DHT22;5601;44.490;11.400;2022-12-29T02:42:32;9.10;99.90
11095;DHT22;5601;44.490;11.400;2022-12-29T02:45:02;9.10;99.90
11095;DHT22;5601;44.490;11.400;2022-12-29T02:47:35;9.10;99.90
11095;DHT22;5601;44.490;11.400;2022-12-29T02:50:03;9.10;99.90
11095;DHT22;5601;44.490;11.400;2022-12-29T02:52:33;9.10;99.90
11095;DHT22;5601;44.490;11.400;2022-12-29T02:55:01;9.10;99.90
11095;DHT22;5601;44.490;11.400;2022-12-29T02:57:28;9.10;99.90
11095;DHT22;5601;44.490;11.400;2022-12-29T02:59:57;9.00;99.90
11095;DHT22;5601;44.490;11.400;2022-12-29T03:02:30;9.00;99.90
11095;DHT22;5601;44.490;11.400;2022-12-29T03:05:06;9.00;99.90
11095;DHT22;5601;44.490;11.400;2022-12-29T03:07:39;9.00;99.90
11095;DHT22;5601;44.490;11.400;2022-12-29T03:10:09;9.00;99.90
11095;DHT22;5601;44.490;11.400;2022-12-29T03:12:42;9.00;99.90
11095;DHT22;5601;44.490;11.400;2022-12-29T03:15:29;9.00;99.90
11095;DHT22;5601;44.490;11.400;2022-12-29T03:18:19;9.00;99.90
11095;DHT22;5601;44.490;11.400;2022-12-29T03:20:51;9.00;99.90
11095;DHT22;5601;44.490;11.400;2022-12-29T03:23:20;9.00;99.90
11095;DHT22;5601;44.490;11.400;2022-12-29T03:25:48;9.10;99.90
11095;DHT22;5601;44.490;11.400;2022-12-29T03:28:18;9.00;99.90
11095;DHT22;5601;44.490;11.400;2022-12-29T03:30:47;9.00;99.90
11095;DHT22;5601;44.490;11.400;2022-12-29T03:33:14;9.00;99.90
11095;DHT22;5601;44.490;11.400;2022-12-29T03:35:43;9.00;99.90
11095;DHT22;5601;44.490;11.400;2022-12-29T03:38:13;9.00;99.90
11095;DHT22;5601;44.490;11.400;2022-12-29T03:40:42;9.00;99.90
11095;DHT22;5601;44.490;11.400;2022-12-29T03:43:10;8.90;99.90
11095;DHT22;5601;44.490;11.400;2022-12-29T03:45:39;8.90;99.90
11095;DHT22;5601;44.490;11.400;2022-12-29T03:48:07;8.90;99.90
11095;DHT22;5601;44.490;11.400;2022-12-29T03:50:34;9.00;99.90
11095;DHT22;5601;44.490;11.400;2022-12-29T03:53:01;9.00;99.90
11095;DHT22;5601;44.490;11.400;2022-12-29T03:55:30;9.00;99.90
11095;DHT22;5601;44.490;11.400;2022-12-29T03:57:57;9.00;99.90
11095;DHT22;5601;44.490;11.400;2022-12-29T04:00:24;9.00;99.90
11095;DHT22;5601;44.490;11.400;2022-12-29T04:02:52;9.00;99.90
11095;DHT22;5601;44.490;11.400;2022-12-29T04:05:19;9.00;99.90
11095;DHT22;5601;44.490;11.400;2022-12-29T04:07:47;9.00;99.90
11095;DHT22;5601;44.490;11.400;2022-12-29T04:10:15;9.00;99.90
11095;DHT22;5601;44.490;11.400;2022-12-29T04:12:43;8.90;99.90
11095;DHT22;5601;44.490;11.400;2022-12-29T04:15:12;8.90;99.90
11095;DHT22;5601;44.490;11.400;2022-12-29T04:17:38;8.90;99.90
11095;DHT22;5601;44.490;11.400;2022-12-29T04:20:06;8.90;99.90
11095;DHT22;5601;44.490;11.400;2022-12-29T04:22:56;9.00;99.90
11095;DHT22;5601;44.490;11.400;2022-12-29T04:25:24;9.00;99.90
11095;DHT22;5601;44.490;11.400;2022-12-29T04:27:53;9.00;99.90
11095;DHT22;5601;44.490;11.400;2022-12-29T04:30:20;9.00;99.90
11095;DHT22;5601;44.490;11.400;2022-12-29T04:32:47;9.00;99.90
11095;DHT22;5601;44.490;11.400;2022-12-29T04:35:14;8.90;99.90
11095;DHT22;5601;44.490;11.400;2022-12-29T04:37:41;8.90;99.90
11095;DHT22;5601;44.490;11.400;2022-12-29T04:40:09;8.90;99.90
11095;DHT22;5601;44.490;11.400;2022-12-29T04:42:36;8.90;99.90
11095;DHT22;5601;44.490;11.400;2022-12-29T04:45:05;8.90;99.90
11095;DHT22;5601;44.490;11.400;2022-12-29T04:47:33;9.00;99.90
11095;DHT22;5601;44.490;11.400;2022-12-29T04:50:00;9.00;99.90
11095;DHT22;5601;44.490;11.400;2022-12-29T04:52:27;9.00;99.90
11095;DHT22;5601;44.490;11.400;2022-12-29T04:54:54;9.00;99.90
11095;DHT22;5601;44.490;11.400;2022-12-29T04:57:21;9.10;99.90
11095;DHT22;5601;44.490;11.400;2022-12-29T04:59:48;9.00;99.90
11095;DHT22;5601;44.490;11.400;2022-12-29T05:02:17;9.00;99.90
11095;DHT22;5601;44.490;11.400;2022-12-29T05:04:44;9.00;99.90
11095;DHT22;5601;44.490;11.400;2022-12-29T05:07:11;9.00;99.90
11095;DHT22;5601;44.490;11.400;2022-12-29T05:09:38;9.00;99.90
11095;DHT22;5601;44.490;11.400;2022-12-29T05:12:05;9.00;99.90
11095;DHT22;5601;44.490;11.400;2022-12-29T05:14:33;9.10;99.90
11095;DHT22;5601;44.490;11.400;2022-12-29T05:17:00;9.00;99.90
11095;DHT22;5601;44.490;11.400;2022-12-29T05:19:29;9.00;99.90
11095;DHT22;5601;44.490;11.400;2022-12-29T05:21:56;9.00;99.90
11095;DHT22;5601;44.490;11.400;2022-12-29T05:24:23;9.00;99.90
11095;DHT22;5601;44.490;11.400;2022-12-29T05:26:50;9.00;99.90
11095;DHT22;5601;44.490;11.400;2022-12-29T05:29:17;9.00;99.90
11095;DHT22;5601;44.490;11.400;2022-12-29T05:31:45;9.00;99.90
11095;DHT22;5601;44.490;11.400;2022-12-29T05:34:13;8.90;99.90
11095;DHT22;5601;44.490;11.400;2022-12-29T05:36:42;8.90;99.90
11095;DHT22;5601;44.490;11.400;2022-12-29T05:39:11;8.90;99.90
11095;DHT22;5601;44.490;11.400;2022-12-29T05:41:39;9.00;99.90
11095;DHT22;5601;44.490;11.400;2022-12-29T05:44:06;9.00;99.90
11095;DHT22;5601;44.490;11.400;2022-12-29T05:46:33;9.00;99.90
11095;DHT22;5601;44.490;11.400;2022-12-29T05:49:00;9.00;99.90
11095;DHT22;5601;44.490;11.400;2022-12-29T05:51:28;9.00;99.90
11095;DHT22;5601;44.490;11.400;2022-12-29T05:53:56;9.00;99.90
11095;DHT22;5601;44.490;11.400;2022-12-29T05:56:24;9.00;99.90
11095;DHT22;5601;44.490;11.400;2022-12-29T05:58:51;9.00;99.90
11095;DHT22;5601;44.490;11.400;2022-12-29T06:01:18;9.00;99.90
11095;DHT22;5601;44.490;11.400;2022-12-29T06:03:45;9.00;99.90
11095;DHT22;5601;44.490;11.400;2022-12-29T06:06:12;9.10;99.90
11095;DHT22;5601;44.490;11.400;2022-12-29T06:08:39;9.00;99.90
11095;DHT22;5601;44.490;11.400;2022-12-29T06:11:08;9.00;99.90
11095;DHT22;5601;44.490;11.400;2022-12-29T06:13:35;9.00;99.90
11095;DHT22;5601;44.490;11.400;2022-12-29T06:16:02;9.00;99.90
11095;DHT22;5601;44.490;11.400;2022-12-29T06:18:30;9.00;99.90
11095;DHT22;5601;44.490;11.400;2022-12-29T06:20:59;9.00;99.90
11095;DHT22;5601;44.490;11.400;2022-12-29T06:23:26;9.00;99.90
11095;DHT22;5601;44.490;11.400;2022-12-29T06:25:53;9.00;99.90
11095;DHT22;5601;44.490;11.400;2022-12-29T06:28:21;9.00;99.90
11095;DHT22;5601;44.490;11.400;2022-12-29T06:30:49;9.10;99.90
11095;DHT22;5601;44.490;11.400;2022-12-29T06:33:16;9.10;99.90
11095;DHT22;5601;44.490;11.400;2022-12-29T06:35:44;9.00;99.90
11095;DHT22;5601;44.490;11.400;2022-12-29T06:38:12;9.00;99.90
11095;DHT22;5601;44.490;11.400;2022-12-29T06:40:39;9.00;99.90
11095;DHT22;5601;44.490;11.400;2022-12-29T06:43:06;9.00;99.90
11095;DHT22;5601;44.490;11.400;2022-12-29T06:45:35;9.00;99.90
11095;DHT22;5601;44.490;11.400;2022-12-29T06:48:06;9.00;99.90
11095;DHT22;5601;44.490;11.400;2022-12-29T06:50:33;9.00;99.90
11095;DHT22;5601;44.490;11.400;2022-12-29T06:53:00;9.10;99.90
11095;DHT22;5601;44.490;11.400;2022-12-29T06:55:27;9.10;99.90
11095;DHT22;5601;44.490;11.400;2022-12-29T06:57:57;9.10;99.90
11095;DHT22;5601;44.490;11.400;2022-12-29T07:00:26;9.10;99.90
11095;DHT22;5601;44.490;11.400;2022-12-29T07:02:56;9.10;99.90
11095;DHT22;5601;44.490;11.400;2022-12-29T07:05:23;9.10;99.90
11095;DHT22;5601;44.490;11.400;2022-12-29T07:07:53;9.00;99.90
11095;DHT22;5601;44.490;11.400;2022-12-29T07:10:20;9.00;99.90
11095;DHT22;5601;44.490;11.400;2022-12-29T07:12:48;9.10;99.90
11095;DHT22;5601;44.490;11.400;2022-12-29T07:15:15;9.10;99.90
11095;DHT22;5601;44.490;11.400;2022-12-29T07:17:43;9.10;99.90
11095;DHT22;5601;44.490;11.400;2022-12-29T07:20:12;9.10;99.90
11095;DHT22;5601;44.490;11.400;2022-12-29T07:22:40;9.00;99.90
11095;DHT22;5601;44.490;11.400;2022-12-29T07:25:07;9.10;99.90
11095;DHT22;5601;44.490;11.400;2022-12-29T07:27:34;9.00;99.90
11095;DHT22;5601;44.490;11.400;2022-12-29T07:30:02;9.00;99.90
11095;DHT22;5601;44.490;11.400;2022-12-29T07:32:31;9.00;99.90
11095;DHT22;5601;44.490;11.400;2022-12-29T07:34:59;9.00;99.90
11095;DHT22;5601;44.490;11.400;2022-12-29T07:37:27;9.10;99.90
11095;DHT22;5601;44.490;11.400;2022-12-29T07:39:54;9.00;99.90
11095;DHT22;5601;44.490;11.400;2022-12-29T07:42:22;9.10;99.90
11095;DHT22;5601;44.490;11.400;2022-12-29T07:44:49;9.10;99.90
11095;DHT22;5601;44.490;11.400;2022-12-29T07:47:16;9.10;99.90
11095;DHT22;5601;44.490;11.400;2022-12-29T07:49:43;9.20;99.90
11095;DHT22;5601;44.490;11.400;2022-12-29T07:52:11;9.20;99.90
11095;DHT22;5601;44.490;11.400;2022-12-29T07:54:40;9.20;99.90
11095;DHT22;5601;44.490;11.400;2022-12-29T07:57:09;9.20;99.90
11095;DHT22;5601;44.490;11.400;2022-12-29T07:59:37;9.20;99.90
11095;DHT22;5601;44.490;11.400;2022-12-29T08:02:03;9.30;99.90
11095;DHT22;5601;44.490;11.400;2022-12-29T08:04:31;9.30;99.90
11095;DHT22;5601;44.490;11.400;2022-12-29T08:06:59;9.30;99.90
11095;DHT22;5601;44.490;11.400;2022-12-29T08:09:26;9.30;99.90
11095;DHT22;5601;44.490;11.400;2022-12-29T08:11:55;9.30;99.90
11095;DHT22;5601;44.490;11.400;2022-12-29T08:14:23;9.20;99.90
11095;DHT22;5601;44.490;11.400;2022-12-29T08:16:50;9.20;99.90
11095;DHT22;5601;44.490;11.400;2022-12-29T08:19:18;9.30;99.90
11095;DHT22;5601;44.490;11.400;2022-12-29T08:21:45;9.30;99.90
11095;DHT22;5601;44.490;11.400;2022-12-29T08:24:12;9.30;99.90
11095;DHT22;5601;44.490;11.400;2022-12-29T08:26:39;9.30;99.90
11095;DHT22;5601;44.490;11.400;2022-12-29T08:29:08;9.30;99.90
11095;DHT22;5601;44.490;11.400;2022-12-29T08:31:35;9.30;99.90
11095;DHT22;5601;44.490;11.400;2022-12-29T08:34:03;9.30;99.90
11095;DHT22;5601;44.490;11.400;2022-12-29T08:36:31;9.30;99.90
11095;DHT22;5601;44.490;11.400;2022-12-29T08:38:58;9.30;99.90
11095;DHT22;5601;44.490;11.400;2022-12-29T08:41:25;9.30;99.90
11095;DHT22;5601;44.490;11.400;2022-12-29T08:43:52;9.40;99.90
11095;DHT22;5601;44.490;11.400;2022-12-29T08:46:21;9.40;99.90
11095;DHT22;5601;44.490;11.400;2022-12-29T08:48:48;9.40;99.90
11095;DHT22;5601;44.490;11.400;2022-12-29T08:51:16;9.50;99.90
11095;DHT22;5601;44.490;11.400;2022-12-29T08:53:43;9.50;99.90
11095;DHT22;5601;44.490;11.400;2022-12-29T08:56:10;9.50;99.90
11095;DHT22;5601;44.490;11.400;2022-12-29T08:58:38;9.50;99.90
11095;DHT22;5601;44.490;11.400;2022-12-29T09:01:06;9.50;99.90
11095;DHT22;5601;44.490;11.400;2022-12-29T09:03:34;9.60;99.90
11095;DHT22;5601;44.490;11.400;2022-12-29T09:06:03;9.60;99.90
11095;DHT22;5601;44.490;11.400;2022-12-29T09:08:31;9.60;99.90
11095;DHT22;5601;44.490;11.400;2022-12-29T09:11:05;9.70;99.90
11095;DHT22;5601;44.490;11.400;2022-12-29T09:13:32;9.60;99.90
11095;DHT22;5601;44.490;11.400;2022-12-29T09:16:00;9.60;99.90
11095;DHT22;5601;44.490;11.400;2022-12-29T09:18:27;9.50;99.90
11095;DHT22;5601;44.490;11.400;2022-12-29T09:20:57;9.50;99.90
11095;DHT22;5601;44.490;11.400;2022-12-29T09:23:25;9.50;99.90
11095;DHT22;5601;44.490;11.400;2022-12-29T09:25:52;9.50;99.90
11095;DHT22;5601;44.490;11.400;2022-12-29T09:28:19;9.50;99.90
11095;DHT22;5601;44.490;11.400;2022-12-29T09:30:47;9.50;99.90
11095;DHT22;5601;44.490;11.400;2022-12-29T09:33:16;9.50;99.90
11095;DHT22;5601;44.490;11.400;2022-12-29T09:35:43;9.50;99.90
11095;DHT22;5601;44.490;11.400;2022-12-29T09:38:12;9.50;99.90
11095;DHT22;5601;44.490;11.400;2022-12-29T09:40:41;9.50;99.90
11095;DHT22;5601;44.490;11.400;2022-12-29T09:43:17;9.50;99.90
11095;DHT22;5601;44.490;11.400;2022-12-29T09:45:50;9.50;99.90
11095;DHT22;5601;44.490;11.400;2022-12-29T09:48:21;9.50;99.90
11095;DHT22;5601;44.490;11.400;2022-12-29T09:50:50;9.50;99.90
11095;DHT22;5601;44.490;11.400;2022-12-29T09:53:21;9.50;99.90
11095;DHT22;5601;44.490;11.400;2022-12-29T09:55:49;9.50;99.90
11095;DHT22;5601;44.490;11.400;2022-12-29T09:58:19;9.50;99.90
11095;DHT22;5601;44.490;11.400;2022-12-29T10:00:49;9.50;99.90
11095;DHT22;5601;44.490;11.400;2022-12-29T10:03:17;9.50;99.90
11095;DHT22;5601;44.490;11.400;2022-12-29T10:05:46;9.60;99.90
11095;DHT22;5601;44.490;11.400;2022-12-29T10:08:17;9.70;99.90
11095;DHT22;5601;44.490;11.400;2022-12-29T10:10:50;9.80;99.90
11095;DHT22;5601;44.490;11.400;2022-12-29T10:13:24;9.80;99.90
11095;DHT22;5601;44.490;11.400;2022-12-29T10:15:57;9.80;99.90
11095;DHT22;5601;44.490;11.400;2022-12-29T10:18:32;9.70;99.90
11095;DHT22;5601;44.490;11.400;2022-12-29T10:21:02;9.60;99.90
11095;DHT22;5601;44.490;11.400;2022-12-29T10:23:33;9.70;99.90
11095;DHT22;5601;44.490;11.400;2022-12-29T10:26:04;9.70;99.90
11095;DHT22;5601;44.490;11.400;2022-12-29T10:28:37;9.70;99.90
11095;DHT22;5601;44.490;11.400;2022-12-29T10:31:07;9.80;99.90
11095;DHT22;5601;44.490;11.400;2022-12-29T10:33:37;9.70;99.90
11095;DHT22;5601;44.490;11.400;2022-12-29T10:36:10;9.70;99.90
11095;DHT22;5601;44.490;11.400;2022-12-29T10:38:40;9.70;99.90
11095;DHT22;5601;44.490;11.400;2022-12-29T10:41:11;9.70;99.90
11095;DHT22;5601;44.490;11.400;2022-12-29T10:43:42;9.70;99.90
11095;DHT22;5601;44.490;11.400;2022-12-29T10:46:11;9.70;99.90
11095;DHT22;5601;44.490;11.400;2022-12-29T10:48:39;9.80;99.90
11095;DHT22;5601;44.490;11.400;2022-12-29T10:51:11;9.80;99.90
11095;DHT22;5601;44.490;11.400;2022-12-29T10:53:43;9.70;99.90
11095;DHT22;5601;44.490;11.400;2022-12-29T10:56:25;9.70;99.90
11095;DHT22;5601;44.490;11.400;2022-12-29T10:58:53;9.80;99.90
11095;DHT22;5601;44.490;11.400;2022-12-29T11:01:21;9.80;99.90
11095;DHT22;5601;44.490;11.400;2022-12-29T11:03:58;9.70;99.90
11095;DHT22;5601;44.490;11.400;2022-12-29T11:06:28;9.70;99.90
11095;DHT22;5601;44.490;11.400;2022-12-29T11:08:57;9.80;99.90
11095;DHT22;5601;44.490;11.400;2022-12-29T11:11:27;9.80;99.90
11095;DHT22;5601;44.490;11.400;2022-12-29T11:14:01;9.80;99.90
11095;DHT22;5601;44.490;11.400;2022-12-29T11:16:30;9.80;99.90
11095;DHT22;5601;44.490;11.400;2022-12-29T11:18:57;9.90;99.90
11095;DHT22;5601;44.490;11.400;2022-12-29T11:21:26;9.80;99.90
11095;DHT22;5601;44.490;11.400;2022-12-29T11:23:55;9.80;99.90
11095;DHT22;5601;44.490;11.400;2022-12-29T11:26:22;9.80;99.90
11095;DHT22;5601;44.490;11.400;2022-12-29T11:31:33;9.90;99.90
11095;DHT22;5601;44.490;11.400;2022-12-29T11:34:06;9.90;99.90
11095;DHT22;5601;44.490;11.400;2022-12-29T11:36:34;9.90;99.90
11095;DHT22;5601;44.490;11.400;2022-12-29T11:39:02;9.90;99.90
11095;DHT22;5601;44.490;11.400;2022-12-29T11:41:30;10.00;99.90
11095;DHT22;5601;44.490;11.400;2022-12-29T11:43:58;10.00;99.90
11095;DHT22;5601;44.490;11.400;2022-12-29T11:46:27;10.10;99.90
11095;DHT22;5601;44.490;11.400;2022-12-29T11:48:56;10.10;99.90
11095;DHT22;5601;44.490;11.400;2022-12-29T11:51:25;10.10;99.90
11095;DHT22;5601;44.490;11.400;2022-12-29T11:53:55;10.10;99.90
11095;DHT22;5601;44.490;11.400;2022-12-29T11:56:31;10.10;99.90
11095;DHT22;5601;44.490;11.400;2022-12-29T12:01:41;10.10;99.90
11095;DHT22;5601;44.490;11.400;2022-12-29T12:04:11;10.10;99.90
11095;DHT22;5601;44.490;11.400;2022-12-29T12:06:43;10.20;99.90
11095;DHT22;5601;44.490;11.400;2022-12-29T12:09:14;10.20;99.90
11095;DHT22;5601;44.490;11.400;2022-12-29T12:11:43;10.10;99.90
11095;DHT22;5601;44.490;11.400;2022-12-29T12:14:12;10.20;99.90
11095;DHT22;5601;44.490;11.400;2022-12-29T12:16:41;10.30;99.90
11095;DHT22;5601;44.490;11.400;2022-12-29T12:19:12;10.30;99.90
11095;DHT22;5601;44.490;11.400;2022-12-29T12:21:41;10.30;99.90
11095;DHT22;5601;44.490;11.400;2022-12-29T12:24:20;10.30;99.90
11095;DHT22;5601;44.490;11.400;2022-12-29T12:26:58;10.30;99.90
11095;DHT22;5601;44.490;11.400;2022-12-29T12:29:28;10.30;99.90
11095;DHT22;5601;44.490;11.400;2022-12-29T12:32:01;10.40;99.90
11095;DHT22;5601;44.490;11.400;2022-12-29T12:34:32;10.30;99.90
11095;DHT22;5601;44.490;11.400;2022-12-29T12:37:06;10.30;99.90
11095;DHT22;5601;44.490;11.400;2022-12-29T12:39:38;10.30;99.90
11095;DHT22;5601;44.490;11.400;2022-12-29T12:42:11;10.20;99.90
11095;DHT22;5601;44.490;11.400;2022-12-29T12:44:44;10.30;99.90
11095;DHT22;5601;44.490;11.400;2022-12-29T12:47:21;10.30;99.90
11095;DHT22;5601;44.490;11.400;2022-12-29T12:52:37;10.50;99.90
11095;DHT22;5601;44.490;11.400;2022-12-29T12:55:17;10.60;99.90
11095;DHT22;5601;44.490;11.400;2022-12-29T12:57:47;10.70;99.90
11095;DHT22;5601;44.490;11.400;2022-12-29T13:00:17;10.70;99.90
11095;DHT22;5601;44.490;11.400;2022-12-29T13:02:49;10.70;99.90
11095;DHT22;5601;44.490;11.400;2022-12-29T13:05:32;10.70;99.90
11095;DHT22;5601;44.490;11.400;2022-12-29T13:08:07;10.80;99.90
11095;DHT22;5601;44.490;11.400;2022-12-29T13:10:41;10.80;99.90
11095;DHT22;5601;44.490;11.400;2022-12-29T13:13:25;10.80;99.90
11095;DHT22;5601;44.490;11.400;2022-12-29T13:15:56;10.80;99.90
11095;DHT22;5601;44.490;11.400;2022-12-29T13:18:26;10.80;99.90
11095;DHT22;5601;44.490;11.400;2022-12-29T13:20:57;10.80;99.90
11095;DHT22;5601;44.490;11.400;2022-12-29T13:23:29;10.80;99.90
11095;DHT22;5601;44.490;11.400;2022-12-29T13:26:00;10.70;99.90
11095;DHT22;5601;44.490;11.400;2022-12-29T13:28:30;10.60;99.90
11095;DHT22;5601;44.490;11.400;2022-12-29T13:31:02;10.50;99.90
11095;DHT22;5601;44.490;11.400;2022-12-29T13:33:34;10.50;99.90
11095;DHT22;5601;44.490;11.400;2022-12-29T13:36:08;10.40;99.90
11095;DHT22;5601;44.490;11.400;2022-12-29T13:38:40;10.40;99.90
11095;DHT22;5601;44.490;11.400;2022-12-29T13:41:10;10.40;99.90
11095;DHT22;5601;44.490;11.400;2022-12-29T13:43:39;10.30;99.90
11095;DHT22;5601;44.490;11.400;2022-12-29T13:46:08;10.30;99.90
11095;DHT22;5601;44.490;11.400;2022-12-29T13:48:37;10.30;99.90
11095;DHT22;5601;44.490;11.400;2022-12-29T13:51:07;10.30;99.90
11095;DHT22;5601;44.490;11.400;2022-12-29T13:53:36;10.30;99.90
11095;DHT22;5601;44.490;11.400;2022-12-29T13:56:09;10.20;99.90
11095;DHT22;5601;44.490;11.400;2022-12-29T13:58:39;10.20;99.90
11095;DHT22;5601;44.490;11.400;2022-12-29T14:01:10;10.20;99.90
11095;DHT22;5601;44.490;11.400;2022-12-29T14:03:46;10.10;99.90
11095;DHT22;5601;44.490;11.400;2022-12-29T14:06:16;10.10;99.90
11095;DHT22;5601;44.490;11.400;2022-12-29T14:08:43;10.10;99.90
11095;DHT22;5601;44.490;11.400;2022-12-29T14:11:12;10.00;99.90
11095;DHT22;5601;44.490;11.400;2022-12-29T14:13:41;10.00;99.90
11095;DHT22;5601;44.490;11.400;2022-12-29T14:16:10;10.00;99.90
11095;DHT22;5601;44.490;11.400;2022-12-29T14:18:41;10.00;99.90
11095;DHT22;5601;44.490;11.400;2022-12-29T14:21:09;10.00;99.90
11095;DHT22;5601;44.490;11.400;2022-12-29T14:23:39;10.00;99.90
11095;DHT22;5601;44.490;11.400;2022-12-29T14:26:12;10.00;99.90
11095;DHT22;5601;44.490;11.400;2022-12-29T14:28:41;10.00;99.90
11095;DHT22;5601;44.490;11.400;2022-12-29T14:36:33;10.00;99.90
11095;DHT22;5601;44.490;11.400;2022-12-29T14:39:00;10.00;99.90
11095;DHT22;5601;44.490;11.400;2022-12-29T14:41:30;9.90;99.90
11095;DHT22;5601;44.490;11.400;2022-12-29T14:44:02;9.90;99.90
11095;DHT22;5601;44.490;11.400;2022-12-29T14:46:43;9.90;99.90
11095;DHT22;5601;44.490;11.400;2022-12-29T14:49:14;10.00;99.90
11095;DHT22;5601;44.490;11.400;2022-12-29T14:51:42;10.00;99.90
11095;DHT22;5601;44.490;11.400;2022-12-29T14:54:34;10.00;99.90
11095;DHT22;5601;44.490;11.400;2022-12-29T14:57:10;10.00;99.90
11095;DHT22;5601;44.490;11.400;2022-12-29T14:59:40;10.00;99.90
11095;DHT22;5601;44.490;11.400;2022-12-29T15:02:12;10.00;99.90
11095;DHT22;5601;44.490;11.400;2022-12-29T15:04:40;9.90;99.90
11095;DHT22;5601;44.490;11.400;2022-12-29T15:07:09;9.90;99.90
11095;DHT22;5601;44.490;11.400;2022-12-29T15:09:37;9.90;99.90
11095;DHT22;5601;44.490;11.400;2022-12-29T15:12:15;9.90;99.90
11095;DHT22;5601;44.490;11.400;2022-12-29T15:14:49;9.90;99.90
11095;DHT22;5601;44.490;11.400;2022-12-29T15:17:22;9.90;99.90
11095;DHT22;5601;44.490;11.400;2022-12-29T15:19:50;9.90;99.90
11095;DHT22;5601;44.490;11.400;2022-12-29T15:22:17;9.90;99.90
11095;DHT22;5601;44.490;11.400;2022-12-29T15:24:45;9.80;99.90
11095;DHT22;5601;44.490;11.400;2022-12-29T15:27:14;9.80;99.90
11095;DHT22;5601;44.490;11.400;2022-12-29T23:19:10;9.50;99.90
11095;DHT22;5601;44.490;11.400;2022-12-29T23:21:38;9.50;99.90
11095;DHT22;5601;44.490;11.400;2022-12-29T23:24:05;9.50;99.90
11095;DHT22;5601;44.490;11.400;2022-12-29T23:26:33;9.50;99.90
11095;DHT22;5601;44.490;11.400;2022-12-29T23:29:02;9.50;99.90
11095;DHT22;5601;44.490;11.400;2022-12-29T23:31:30;9.50;99.90
11095;DHT22;5601;44.490;11.400;2022-12-29T23:33:58;9.40;99.90
11095;DHT22;5601;44.490;11.400;2022-12-29T23:36:29;9.50;99.90
11095;DHT22;5601;44.490;11.400;2022-12-29T23:38:56;9.40;99.90
11095;DHT22;5601;44.490;11.400;2022-12-29T23:41:24;9.40;99.90
11095;DHT22;5601;44.490;11.400;2022-12-29T23:43:52;9.50;99.90
11095;DHT22;5601;44.490;11.400;2022-12-29T23:46:19;9.50;99.90
11095;DHT22;5601;44.490;11.400;2022-12-29T23:48:47;9.50;99.90
11095;DHT22;5601;44.490;11.400;2022-12-29T23:51:15;9.50;99.90
11095;DHT22;5601;44.490;11.400;2022-12-29T23:53:43;9.50;99.90
11095;DHT22;5601;44.490;11.400;2022-12-29T23:56:12;9.50;99.90
11095;DHT22;5601;44.490;11.400;2022-12-29T23:58:39;9.50;99.90
